createdAt,value
2023-05-22T00:03:13.690Z,100920.95
2023-05-22T00:06:58.668Z,100919.58
2023-05-22T00:10:43.622Z,100923.86
2023-05-22T00:14:29.196Z,100918.69
2023-05-22T00:18:14.425Z,100916.02
2023-05-22T00:21:59.151Z,100919.82
2023-05-22T00:25:45.183Z,100909.20
2023-05-22T00:29:29.655Z,100906.39
2023-05-22T00:33:14.321Z,100911.16
2023-05-22T00:37:05.463Z,100907.39
2023-05-22T00:40:56.016Z,100897.59
2023-05-22T00:44:47.926Z,100906.36
2023-05-22T00:47:38.194Z,100909.48
2023-05-22T00:50:26.264Z,100907.30
2023-05-22T00:53:14.373Z,100907.34
2023-05-22T00:56:02.226Z,100909.01
2023-05-22T00:58:50.771Z,100911.11
2023-05-22T01:01:42.451Z,100910.65
2023-05-22T01:04:32.171Z,100908.55
2023-05-22T01:07:21.118Z,100915.80
2023-05-22T01:10:09.875Z,100917.52
2023-05-22T01:13:06.746Z,100917.59
2023-05-22T01:16:13.773Z,100924.09
2023-05-22T01:19:12.095Z,100919.86
2023-05-22T01:22:06.224Z,100914.23
2023-05-22T01:25:11.401Z,100912.50
2023-05-22T01:28:02.424Z,100918.86
2023-05-22T01:31:10.680Z,100919.80
2023-05-22T01:34:00.779Z,100922.85
2023-05-22T01:36:48.308Z,100918.36
2023-05-22T01:39:36.513Z,100924.98
2023-05-22T01:42:24.076Z,100926.53
2023-05-22T01:45:11.918Z,100930.59
2023-05-22T01:48:00.451Z,100933.68
2023-05-22T01:50:48.406Z,100928.89
2023-05-22T01:53:41.669Z,100927.52
2023-05-22T01:56:34.069Z,100922.90
2023-05-22T01:59:54.082Z,100926.27
2023-05-22T02:02:44.768Z,100946.87
2023-05-22T02:05:33.447Z,100938.58
2023-05-22T02:08:21.367Z,100937.86
2023-05-22T02:11:10.065Z,100944.61
2023-05-22T02:13:58.061Z,100942.56
2023-05-22T02:16:47.351Z,100945.19
2023-05-22T02:19:35.656Z,100943.70
2023-05-22T02:22:23.739Z,100939.08
2023-05-22T02:25:16.214Z,100938.61
2023-05-22T02:28:04.827Z,100931.36
2023-05-22T02:30:52.805Z,100932.01
2023-05-22T02:33:40.817Z,100931.68
2023-05-22T02:36:30.377Z,100935.65
2023-05-22T02:39:18.951Z,100929.67
2023-05-22T02:42:07.498Z,100933.30
2023-05-22T02:44:55.633Z,100934.56
2023-05-22T02:47:43.734Z,100932.29
2023-05-22T02:50:33.603Z,100934.52
2023-05-22T02:53:21.479Z,100930.89
2023-05-22T02:56:12.424Z,100925.93
2023-05-22T02:59:00.439Z,100925.83
2023-05-22T03:01:48.587Z,100926.21
2023-05-22T03:04:38.019Z,100925.89
2023-05-22T03:07:29.023Z,100926.32
2023-05-22T03:10:16.815Z,100920.20
2023-05-22T03:13:04.828Z,100925.14
2023-05-22T03:15:53.091Z,100926.65
2023-05-22T03:18:41.530Z,100921.58
2023-05-22T03:21:29.594Z,100919.67
2023-05-22T03:24:17.566Z,100912.89
2023-05-22T03:27:05.560Z,100908.86
2023-05-22T03:30:03.614Z,100908.51
2023-05-22T03:32:52.685Z,100904.39
2023-05-22T03:35:43.353Z,100902.83
2023-05-22T03:38:31.777Z,100901.38
2023-05-22T03:41:19.655Z,100897.19
2023-05-22T03:44:07.872Z,100896.88
2023-05-22T03:46:56.159Z,100902.25
2023-05-22T03:49:44.197Z,100898.61
2023-05-22T03:52:32.237Z,100895.39
2023-05-22T03:55:20.140Z,100893.44
2023-05-22T03:58:10.413Z,100887.08
2023-05-22T04:01:00.609Z,100882.92
2023-05-22T04:03:50.536Z,100889.06
2023-05-22T04:06:42.548Z,100892.27
2023-05-22T04:09:30.855Z,100893.54
2023-05-22T04:12:19.440Z,100894.67
2023-05-22T04:15:08.696Z,100897.39
2023-05-22T04:17:56.746Z,100899.00
2023-05-22T04:20:44.753Z,100894.06
2023-05-22T04:23:32.849Z,100897.05
2023-05-22T04:26:20.888Z,100897.73
2023-05-22T04:29:09.953Z,100892.57
2023-05-22T04:31:59.683Z,100893.81
2023-05-22T04:34:52.238Z,100891.95
2023-05-22T04:37:41.850Z,100891.86
2023-05-22T04:40:33.006Z,100886.71
2023-05-22T04:43:23.019Z,100883.60
2023-05-22T04:46:12.489Z,100884.85
2023-05-22T04:49:01.563Z,100881.43
2023-05-22T04:51:49.672Z,100877.23
2023-05-22T04:54:39.033Z,100879.29
2023-05-22T04:57:27.132Z,100878.55
2023-05-22T05:00:16.678Z,100878.73
2023-05-22T05:03:07.524Z,100876.70
2023-05-22T05:05:56.385Z,100876.40
2023-05-22T05:08:47.412Z,100869.20
2023-05-22T05:11:35.824Z,100873.88
2023-05-22T05:14:25.198Z,100870.86
2023-05-22T05:17:13.416Z,100870.74
2023-05-22T05:20:01.537Z,100871.50
2023-05-22T05:22:56.129Z,100868.50
2023-05-22T05:25:44.390Z,100867.68
2023-05-22T05:28:33.210Z,100865.55
2023-05-22T05:31:22.290Z,100868.36
2023-05-22T05:34:19.702Z,100866.79
2023-05-22T05:37:19.065Z,100870.25
2023-05-22T05:40:09.340Z,100872.55
2023-05-22T05:43:00.387Z,100873.23
2023-05-22T05:45:49.489Z,100869.20
2023-05-22T05:48:37.529Z,100869.29
2023-05-22T05:51:26.901Z,100863.74
2023-05-22T05:54:17.222Z,100865.52
2023-05-22T05:57:06.757Z,100861.57
2023-05-22T05:59:56.506Z,100863.73
2023-05-22T06:03:03.160Z,100864.23
2023-05-22T06:06:06.776Z,100867.14
2023-05-22T06:09:15.988Z,100864.37
2023-05-22T06:12:32.058Z,100864.59
2023-05-22T06:15:20.743Z,100862.77
2023-05-22T06:18:08.838Z,100860.72
2023-05-22T06:20:58.749Z,100858.34
2023-05-22T06:23:47.747Z,100860.45
2023-05-22T06:26:36.270Z,100862.30
2023-05-22T06:29:24.394Z,100860.65
2023-05-22T06:32:13.689Z,100856.52
2023-05-22T06:35:02.529Z,100859.02
2023-05-22T06:37:52.653Z,100854.88
2023-05-22T06:40:41.502Z,100851.42
2023-05-22T06:43:37.894Z,100853.77
2023-05-22T06:46:33.803Z,100851.16
2023-05-22T06:49:24.622Z,100853.30
2023-05-22T06:52:15.177Z,100855.56
2023-05-22T06:55:06.279Z,100854.12
2023-05-22T06:58:01.589Z,100851.20
2023-05-22T07:00:49.706Z,100848.86
2023-05-22T07:03:43.257Z,100849.76
2023-05-22T07:06:54.717Z,100853.61
2023-05-22T07:09:43.237Z,100851.70
2023-05-22T07:12:31.820Z,100849.84
2023-05-22T07:15:22.223Z,100844.52
2023-05-22T07:18:14.750Z,100841.23
2023-05-22T07:21:03.580Z,100838.08
2023-05-22T07:23:52.263Z,100834.48
2023-05-22T07:26:45.276Z,100830.20
2023-05-22T07:29:33.469Z,100834.83
2023-05-22T07:32:22.253Z,100835.52
2023-05-22T07:35:14.864Z,100832.91
2023-05-22T07:38:03.519Z,100831.78
2023-05-22T07:40:52.079Z,100830.41
2023-05-22T07:43:39.932Z,100834.80
2023-05-22T07:46:28.868Z,100834.74
2023-05-22T07:49:21.736Z,100836.38
2023-05-22T07:52:11.560Z,100836.60
2023-05-22T07:55:00.326Z,100835.60
2023-05-22T07:57:48.920Z,100830.88
2023-05-22T08:00:45.933Z,100822.70
2023-05-22T08:03:38.556Z,100818.04
2023-05-22T08:06:26.480Z,100819.66
2023-05-22T08:09:14.482Z,100820.79
2023-05-22T08:12:02.743Z,100819.71
2023-05-22T08:14:50.802Z,100817.98
2023-05-22T08:17:39.028Z,100820.08
2023-05-22T08:20:27.567Z,100819.84
2023-05-22T08:23:15.518Z,100819.09
2023-05-22T08:26:04.376Z,100824.63
2023-05-22T08:28:52.470Z,100823.08
2023-05-22T08:31:41.117Z,100817.97
2023-05-22T08:34:29.242Z,100810.34
2023-05-22T08:37:17.376Z,100812.30
2023-05-22T08:40:07.987Z,100814.64
2023-05-22T08:42:57.159Z,100819.13
2023-05-22T08:45:45.317Z,100817.92
2023-05-22T08:48:33.566Z,100816.46
2023-05-22T08:51:21.965Z,100816.13
2023-05-22T08:54:09.987Z,100818.36
2023-05-22T08:56:58.008Z,100819.24
2023-05-22T08:59:46.599Z,100815.63
2023-05-22T09:02:35.541Z,100815.51
2023-05-22T09:05:26.390Z,100815.04
2023-05-22T09:08:20.320Z,100816.64
2023-05-22T09:11:10.536Z,100813.16
2023-05-22T09:14:08.533Z,100812.27
2023-05-22T09:16:56.888Z,100812.95
2023-05-22T09:19:47.662Z,100815.24
2023-05-22T09:22:39.628Z,100814.66
2023-05-22T09:25:27.485Z,100812.84
2023-05-22T09:28:15.736Z,100809.72
2023-05-22T09:31:04.462Z,100807.33
2023-05-22T09:33:52.342Z,100807.77
2023-05-22T09:36:41.042Z,100811.89
2023-05-22T09:39:40.937Z,100811.94
2023-05-22T09:42:29.284Z,100809.30
2023-05-22T09:45:19.509Z,100812.86
2023-05-22T09:48:08.124Z,100807.80
2023-05-22T09:50:56.308Z,100813.06
2023-05-22T09:53:44.489Z,100810.08
2023-05-22T09:56:39.000Z,100810.67
2023-05-22T09:59:32.579Z,100806.50
2023-05-22T10:02:24.997Z,100801.60
2023-05-22T10:05:20.856Z,100796.52
2023-05-22T10:08:11.764Z,100793.46
2023-05-22T10:10:59.737Z,100792.35
2023-05-22T10:13:48.425Z,100793.75
2023-05-22T10:16:41.486Z,100787.32
2023-05-22T10:19:32.191Z,100785.83
2023-05-22T10:22:22.093Z,100785.25
2023-05-22T10:25:11.174Z,100781.45
2023-05-22T10:28:00.044Z,100784.02
2023-05-22T10:30:58.488Z,100785.36
2023-05-22T10:34:06.799Z,100773.61
2023-05-22T10:37:13.080Z,100765.11
2023-05-22T10:40:07.661Z,100764.48
2023-05-22T10:43:03.532Z,100765.30
2023-05-22T10:46:02.097Z,100760.87
2023-05-22T10:48:53.775Z,100760.79
2023-05-22T10:51:41.861Z,100757.80
2023-05-22T10:54:43.178Z,100756.73
2023-05-22T10:57:34.568Z,100757.52
2023-05-22T11:00:22.709Z,100755.40
2023-05-22T11:03:17.787Z,100751.10
2023-05-22T11:06:07.427Z,100748.61
2023-05-22T11:08:56.180Z,100748.85
2023-05-22T11:11:44.647Z,100751.11
2023-05-22T11:14:32.732Z,100744.77
2023-05-22T11:17:49.691Z,100745.41
2023-05-22T11:20:39.364Z,100745.81
2023-05-22T11:23:27.717Z,100744.69
2023-05-22T11:26:20.506Z,100742.84
2023-05-22T11:30:20.163Z,100738.98
2023-05-22T11:34:21.728Z,100738.91
2023-05-22T11:38:19.397Z,100731.28
2023-05-22T11:42:20.723Z,100728.04
2023-05-22T11:46:18.198Z,100727.90
2023-05-22T11:54:20.243Z,100719.52
2023-05-22T11:58:22.098Z,100714.77
2023-05-22T12:02:20.260Z,100708.77
2023-05-22T12:06:21.823Z,100707.20
2023-05-22T12:10:20.414Z,100704.09
2023-05-22T12:14:21.683Z,100701.10
2023-05-22T12:18:18.330Z,100698.11
2023-05-22T12:22:19.727Z,100691.94
2023-05-22T12:26:19.388Z,100691.58
2023-05-22T12:30:20.917Z,100691.66
2023-05-22T12:34:18.264Z,100687.45
2023-05-22T12:38:19.704Z,100683.34
2023-05-22T12:42:18.444Z,100679.50
2023-05-22T12:46:20.183Z,100681.30
2023-05-22T12:50:22.067Z,100678.41
2023-05-22T12:54:17.251Z,100670.93
2023-05-22T12:58:18.909Z,100666.75
2023-05-22T13:02:14.202Z,100663.14
2023-05-22T13:06:16.021Z,100665.40
2023-05-22T13:10:14.255Z,100655.54
2023-05-22T13:14:13.447Z,100648.97
2023-05-22T13:18:11.484Z,100644.94
2023-05-22T13:22:12.015Z,100645.40
2023-05-22T13:26:09.355Z,100647.09
2023-05-22T13:30:08.830Z,100640.89
2023-05-22T13:34:07.508Z,100638.48
2023-05-22T13:38:12.562Z,100639.92
2023-05-22T13:42:10.475Z,100645.43
2023-05-22T13:46:11.315Z,100642.20
2023-05-22T13:50:07.952Z,100637.31
2023-05-22T13:54:05.312Z,100633.88
2023-05-22T13:58:04.048Z,100631.23
2023-05-22T14:02:02.640Z,100634.48
2023-05-22T14:06:01.683Z,100633.66
2023-05-22T14:09:58.083Z,100633.02
2023-05-22T14:13:59.406Z,100628.17
2023-05-22T14:17:55.576Z,100626.81
2023-05-22T14:21:54.779Z,100624.25
2023-05-22T14:25:50.338Z,100622.98
2023-05-22T14:29:50.837Z,100629.61
2023-05-22T14:33:45.261Z,100630.67
2023-05-22T14:37:44.580Z,100627.30
2023-05-22T14:41:39.668Z,100626.70
2023-05-22T14:45:38.501Z,100623.95
2023-05-22T14:49:33.733Z,100620.42
2023-05-22T14:53:33.090Z,100611.84
2023-05-22T14:57:28.169Z,100614.95
2023-05-22T15:01:26.836Z,100611.37
2023-05-22T15:05:21.860Z,100607.74
2023-05-22T15:09:21.203Z,100608.31
2023-05-22T15:13:16.893Z,100612.95
2023-05-22T15:17:15.499Z,100609.92
2023-05-22T15:21:10.835Z,100610.23
2023-05-22T15:25:09.723Z,100613.23
2023-05-22T15:29:05.661Z,100607.43
2023-05-22T15:33:04.881Z,100608.95
2023-05-22T15:36:59.671Z,100613.34
2023-05-22T15:40:58.885Z,100614.59
2023-05-22T15:44:54.676Z,100616.11
2023-05-22T15:48:53.670Z,100617.10
2023-05-22T15:52:48.876Z,100624.55
2023-05-22T15:56:48.016Z,100625.92
2023-05-22T16:00:42.776Z,100625.89
2023-05-22T16:04:41.608Z,100614.73
2023-05-22T16:08:36.618Z,100605.98
2023-05-22T16:12:36.243Z,100608.91
2023-05-22T16:16:31.898Z,100607.79
2023-05-22T16:20:30.620Z,100611.06
2023-05-22T16:24:26.125Z,100606.88
2023-05-22T16:28:25.366Z,100604.44
2023-05-22T16:32:20.983Z,100607.79
2023-05-22T16:36:19.953Z,100605.66
2023-05-22T16:40:15.930Z,100611.84
2023-05-22T16:44:15.134Z,100614.91
2023-05-22T16:47:05.128Z,100621.70
2023-05-22T16:49:53.159Z,100625.95
2023-05-22T16:52:41.022Z,100632.27
2023-05-22T16:55:29.035Z,100633.48
2023-05-22T16:58:17.190Z,100635.75
2023-05-22T17:01:05.852Z,100636.14
2023-05-22T17:03:54.334Z,100641.77
2023-05-22T17:06:45.008Z,100642.63
2023-05-22T17:09:33.041Z,100645.80
2023-05-22T17:12:20.477Z,100647.80
2023-05-22T17:15:09.065Z,100649.67
2023-05-22T17:17:57.064Z,100654.36
2023-05-22T17:20:48.908Z,100664.27
2023-05-22T17:23:36.968Z,100669.27
2023-05-22T17:26:25.033Z,100668.27
2023-05-22T17:29:12.801Z,100670.66
2023-05-22T17:32:01.060Z,100679.89
2023-05-22T17:34:49.094Z,100682.41
2023-05-22T17:37:37.154Z,100678.69
2023-05-22T17:40:40.042Z,100677.91
2023-05-22T17:43:34.638Z,100672.42
2023-05-22T17:46:22.576Z,100674.11
2023-05-22T17:49:10.530Z,100675.49
2023-05-22T17:51:58.602Z,100670.94
2023-05-22T17:54:46.804Z,100662.50
2023-05-22T17:57:35.056Z,100661.18
2023-05-22T18:00:23.193Z,100659.01
2023-05-22T18:03:11.770Z,100655.08
2023-05-22T18:05:59.666Z,100660.08
2023-05-22T18:08:47.770Z,100658.38
2023-05-22T18:11:35.508Z,100657.90
2023-05-22T18:14:23.607Z,100659.49
2023-05-22T18:17:11.841Z,100654.64
2023-05-22T18:20:00.532Z,100653.31
2023-05-22T18:22:48.523Z,100649.21
2023-05-22T18:25:36.362Z,100649.97
2023-05-22T18:28:26.051Z,100647.85
2023-05-22T18:31:13.695Z,100645.05
2023-05-22T18:34:01.645Z,100645.71
2023-05-22T18:36:50.363Z,100649.98
2023-05-22T18:39:38.378Z,100645.96
2023-05-22T18:42:26.596Z,100640.75
2023-05-22T18:45:14.690Z,100641.79
2023-05-22T18:48:02.678Z,100640.08
2023-05-22T18:50:51.558Z,100640.94
2023-05-22T18:53:40.005Z,100644.83
2023-05-22T18:56:28.156Z,100640.33
2023-05-22T18:59:16.618Z,100638.72
2023-05-22T19:02:04.820Z,100639.30
2023-05-22T19:04:52.909Z,100636.16
2023-05-22T19:07:41.345Z,100634.55
2023-05-22T19:10:29.484Z,100638.66
2023-05-22T19:13:17.397Z,100633.17
2023-05-22T19:16:05.696Z,100635.84
2023-05-22T19:18:53.497Z,100638.30
2023-05-22T19:21:42.051Z,100642.38
2023-05-22T19:24:30.669Z,100646.92
2023-05-22T19:27:18.486Z,100641.16
2023-05-22T19:30:06.727Z,100635.59
2023-05-22T19:32:57.765Z,100632.96
2023-05-22T19:35:46.662Z,100631.40
2023-05-22T19:38:35.022Z,100628.10
2023-05-22T19:41:23.263Z,100629.59
2023-05-22T19:44:11.334Z,100632.16
2023-05-22T19:46:59.043Z,100635.35
2023-05-22T19:49:46.920Z,100642.54
2023-05-22T19:52:34.964Z,100641.77
2023-05-22T19:55:22.865Z,100638.63
2023-05-22T19:58:11.126Z,100631.61
2023-05-22T20:00:59.586Z,100632.38
2023-05-22T20:03:47.605Z,100630.84
2023-05-22T20:06:36.615Z,100631.10
2023-05-22T20:09:26.380Z,100632.94
2023-05-22T20:12:14.518Z,100634.45
2023-05-22T20:15:03.410Z,100631.70
2023-05-22T20:17:53.024Z,100635.46
2023-05-22T20:20:41.093Z,100637.59
2023-05-22T20:23:29.346Z,100638.92
2023-05-22T20:26:17.396Z,100640.59
2023-05-22T20:29:05.336Z,100642.25
2023-05-22T20:31:54.298Z,100642.98
2023-05-22T20:34:42.474Z,100647.34
2023-05-22T20:37:34.395Z,100647.15
2023-05-22T20:40:25.874Z,100647.36
2023-05-22T20:43:14.088Z,100645.26
2023-05-22T20:46:02.723Z,100647.38
2023-05-22T20:48:53.679Z,100648.70
2023-05-22T20:51:42.749Z,100653.69
2023-05-22T20:54:33.738Z,100645.89
2023-05-22T20:57:21.949Z,100645.91
2023-05-22T21:00:10.640Z,100641.73
2023-05-22T21:03:00.818Z,100643.83
2023-05-22T21:05:48.868Z,100643.55
2023-05-22T21:08:37.604Z,100640.14
2023-05-22T21:11:26.213Z,100639.79
2023-05-22T21:14:14.344Z,100640.19
2023-05-22T21:17:02.133Z,100639.16
2023-05-22T21:19:50.155Z,100642.66
2023-05-22T21:22:38.150Z,100641.41
2023-05-22T21:25:26.270Z,100643.36
2023-05-22T21:28:14.321Z,100644.64
2023-05-22T21:31:02.145Z,100646.80
2023-05-22T21:33:50.174Z,100648.46
2023-05-22T21:36:38.306Z,100648.58
2023-05-22T21:39:26.038Z,100650.52
2023-05-22T21:42:14.793Z,100648.58
2023-05-22T21:45:02.954Z,100648.31
2023-05-22T21:47:50.915Z,100648.80
2023-05-22T21:50:39.035Z,100650.16
2023-05-22T21:53:26.777Z,100652.83
2023-05-22T21:56:14.635Z,100649.23
2023-05-22T21:59:02.988Z,100648.52
2023-05-22T22:01:50.811Z,100648.11
2023-05-22T22:04:39.209Z,100643.41
2023-05-22T22:07:26.944Z,100641.52
2023-05-22T22:10:14.978Z,100641.80
2023-05-22T22:13:03.263Z,100639.25
2023-05-22T22:15:59.350Z,100644.27
2023-05-22T22:18:50.821Z,100647.06
2023-05-22T22:21:38.634Z,100641.20
2023-05-22T22:24:29.106Z,100635.63
2023-05-22T22:27:17.153Z,100632.76
2023-05-22T22:30:05.896Z,100639.15
2023-05-22T22:32:54.324Z,100631.42
2023-05-22T22:35:42.687Z,100635.34
2023-05-22T22:38:32.574Z,100642.09
2023-05-22T22:41:20.412Z,100636.50
2023-05-22T22:44:08.225Z,100645.07
2023-05-22T22:46:56.605Z,100639.27
2023-05-22T22:49:44.461Z,100640.30
2023-05-22T22:52:32.693Z,100636.95
2023-05-22T22:55:20.790Z,100633.01
2023-05-22T22:58:09.055Z,100632.96
2023-05-22T23:00:57.155Z,100628.75
2023-05-22T23:03:44.988Z,100623.00
2023-05-22T23:06:34.150Z,100623.34
2023-05-22T23:09:21.859Z,100624.15
2023-05-22T23:12:09.927Z,100627.95
2023-05-22T23:14:57.866Z,100627.77
2023-05-22T23:17:46.156Z,100630.26
2023-05-22T23:20:34.145Z,100625.61
2023-05-22T23:23:23.639Z,100621.48
2023-05-22T23:26:11.507Z,100618.77
2023-05-22T23:28:59.746Z,100617.90
2023-05-22T23:31:47.777Z,100618.86
2023-05-22T23:34:35.897Z,100611.95
2023-05-22T23:37:23.622Z,100611.77
2023-05-22T23:40:12.191Z,100614.38
2023-05-22T23:42:59.958Z,100613.74
2023-05-22T23:45:48.321Z,100608.52
2023-05-22T23:48:36.282Z,100607.77
2023-05-22T23:51:24.043Z,100604.91
2023-05-22T23:54:12.616Z,100604.23
2023-05-22T23:57:00.452Z,100603.46
2023-05-22T23:59:48.166Z,100601.88
